sensor_id;sensor_type;location;lat;lon;timestamp;temperature;humidity
78779;DHT22;68121;52.404;5.318;2024-01-30T00:02:15;7.70;73.70
78779;DHT22;68121;52.404;5.318;2024-01-30T00:04:41;7.70;73.60
78779;DHT22;68121;52.404;5.318;2024-01-30T00:07:08;7.70;73.60
78779;DHT22;68121;52.404;5.318;2024-01-30T00:09:34;7.70;73.70
78779;DHT22;68121;52.404;5.318;2024-01-30T00:12:00;7.70;73.60
78779;DHT22;68121;52.404;5.318;2024-01-30T00:14:26;7.70;73.60
78779;DHT22;68121;52.404;5.318;2024-01-30T00:16:52;7.60;73.70
78779;DHT22;68121;52.404;5.318;2024-01-30T00:19:18;7.60;73.70
78779;DHT22;68121;52.404;5.318;2024-01-30T00:21:44;7.60;73.80
78779;DHT22;68121;52.404;5.318;2024-01-30T00:24:10;7.60;73.80
78779;DHT22;68121;52.404;5.318;2024-01-30T00:26:36;7.60;73.80
78779;DHT22;68121;52.404;5.318;2024-01-30T00:29:02;7.50;73.80
78779;DHT22;68121;52.404;5.318;2024-01-30T00:31:28;7.60;73.90
78779;DHT22;68121;52.404;5.318;2024-01-30T00:33:55;7.50;73.90
78779;DHT22;68121;52.404;5.318;2024-01-30T00:36:21;7.60;73.90
78779;DHT22;68121;52.404;5.318;2024-01-30T00:38:47;7.60;73.90
78779;DHT22;68121;52.404;5.318;2024-01-30T00:41:14;7.60;73.90
78779;DHT22;68121;52.404;5.318;2024-01-30T00:43:40;7.60;74.00
78779;DHT22;68121;52.404;5.318;2024-01-30T00:46:06;7.60;74.00
78779;DHT22;68121;52.404;5.318;2024-01-30T00:48:32;7.60;73.90
78779;DHT22;68121;52.404;5.318;2024-01-30T00:50:58;7.60;74.00
78779;DHT22;68121;52.404;5.318;2024-01-30T00:53:24;7.60;73.90
78779;DHT22;68121;52.404;5.318;2024-01-30T00:55:50;7.60;74.00
78779;DHT22;68121;52.404;5.318;2024-01-30T00:58:16;7.70;74.00
78779;DHT22;68121;52.404;5.318;2024-01-30T01:00:42;7.70;74.00
78779;DHT22;68121;52.404;5.318;2024-01-30T01:03:08;7.70;74.00
78779;DHT22;68121;52.404;5.318;2024-01-30T01:05:34;7.80;74.00
78779;DHT22;68121;52.404;5.318;2024-01-30T01:08:00;7.80;74.00
78779;DHT22;68121;52.404;5.318;2024-01-30T01:10:26;7.80;73.90
78779;DHT22;68121;52.404;5.318;2024-01-30T01:12:53;7.80;74.00
78779;DHT22;68121;52.404;5.318;2024-01-30T01:15:19;7.80;74.00
78779;DHT22;68121;52.404;5.318;2024-01-30T01:17:45;7.80;74.00
78779;DHT22;68121;52.404;5.318;2024-01-30T01:20:12;7.80;74.10
78779;DHT22;68121;52.404;5.318;2024-01-30T01:22:38;7.80;74.00
78779;DHT22;68121;52.404;5.318;2024-01-30T01:25:04;7.80;74.10
78779;DHT22;68121;52.404;5.318;2024-01-30T01:27:34;7.80;74.10
78779;DHT22;68121;52.404;5.318;2024-01-30T01:30:04;7.80;74.00
78779;DHT22;68121;52.404;5.318;2024-01-30T01:32:31;7.80;74.10
78779;DHT22;68121;52.404;5.318;2024-01-30T01:34:57;7.80;74.10
78779;DHT22;68121;52.404;5.318;2024-01-30T01:37:23;7.80;74.00
78779;DHT22;68121;52.404;5.318;2024-01-30T01:39:52;7.80;74.10
78779;DHT22;68121;52.404;5.318;2024-01-30T01:42:18;7.80;74.10
78779;DHT22;68121;52.404;5.318;2024-01-30T01:44:44;7.80;74.10
78779;DHT22;68121;52.404;5.318;2024-01-30T01:47:10;7.80;74.10
78779;DHT22;68121;52.404;5.318;2024-01-30T01:49:37;7.80;74.10
78779;DHT22;68121;52.404;5.318;2024-01-30T01:52:04;7.80;74.20
78779;DHT22;68121;52.404;5.318;2024-01-30T01:54:30;7.70;74.20
78779;DHT22;68121;52.404;5.318;2024-01-30T01:56:56;7.70;74.20
78779;DHT22;68121;52.404;5.318;2024-01-30T01:59:23;7.70;74.30
78779;DHT22;68121;52.404;5.318;2024-01-30T02:01:51;7.60;74.20
78779;DHT22;68121;52.404;5.318;2024-01-30T02:04:17;7.60;74.20
78779;DHT22;68121;52.404;5.318;2024-01-30T02:06:44;7.60;74.20
78779;DHT22;68121;52.404;5.318;2024-01-30T02:09:10;7.60;74.30
78779;DHT22;68121;52.404;5.318;2024-01-30T02:11:36;7.60;74.20
78779;DHT22;68121;52.404;5.318;2024-01-30T02:14:03;7.60;74.30
78779;DHT22;68121;52.404;5.318;2024-01-30T02:16:30;7.60;74.30
78779;DHT22;68121;52.404;5.318;2024-01-30T02:18:56;7.60;74.30
78779;DHT22;68121;52.404;5.318;2024-01-30T02:21:22;7.60;74.30
78779;DHT22;68121;52.404;5.318;2024-01-30T02:23:48;7.60;74.40
78779;DHT22;68121;52.404;5.318;2024-01-30T02:26:15;7.60;74.30
78779;DHT22;68121;52.404;5.318;2024-01-30T02:28:41;7.60;74.40
78779;DHT22;68121;52.404;5.318;2024-01-30T02:31:07;7.50;74.40
78779;DHT22;68121;52.404;5.318;2024-01-30T02:33:33;7.50;74.50
78779;DHT22;68121;52.404;5.318;2024-01-30T02:36:00;7.50;74.40
78779;DHT22;68121;52.404;5.318;2024-01-30T02:38:26;7.50;74.50
78779;DHT22;68121;52.404;5.318;2024-01-30T02:40:52;7.60;74.50
78779;DHT22;68121;52.404;5.318;2024-01-30T02:43:19;7.60;74.50
78779;DHT22;68121;52.404;5.318;2024-01-30T02:45:45;7.60;74.50
78779;DHT22;68121;52.404;5.318;2024-01-30T02:48:11;7.60;74.40
78779;DHT22;68121;52.404;5.318;2024-01-30T02:50:37;7.60;74.40
78779;DHT22;68121;52.404;5.318;2024-01-30T02:53:03;7.60;74.40
78779;DHT22;68121;52.404;5.318;2024-01-30T02:55:29;7.60;74.40
78779;DHT22;68121;52.404;5.318;2024-01-30T02:57:55;7.60;74.40
78779;DHT22;68121;52.404;5.318;2024-01-30T03:00:21;7.50;74.40
78779;DHT22;68121;52.404;5.318;2024-01-30T03:02:47;7.50;74.40
78779;DHT22;68121;52.404;5.318;2024-01-30T03:05:13;7.50;74.50
78779;DHT22;68121;52.404;5.318;2024-01-30T03:07:39;7.50;74.50
78779;DHT22;68121;52.404;5.318;2024-01-30T03:10:06;7.50;74.50
78779;DHT22;68121;52.404;5.318;2024-01-30T03:12:32;7.50;74.50
78779;DHT22;68121;52.404;5.318;2024-01-30T03:14:58;7.50;74.50
78779;DHT22;68121;52.404;5.318;2024-01-30T03:17:24;7.50;74.50
78779;DHT22;68121;52.404;5.318;2024-01-30T03:19:51;7.50;74.50
78779;DHT22;68121;52.404;5.318;2024-01-30T03:22:17;7.50;74.50
78779;DHT22;68121;52.404;5.318;2024-01-30T03:24:43;7.40;74.60
78779;DHT22;68121;52.404;5.318;2024-01-30T03:27:09;7.40;74.60
78779;DHT22;68121;52.404;5.318;2024-01-30T03:29:35;7.40;74.60
78779;DHT22;68121;52.404;5.318;2024-01-30T03:32:01;7.40;74.60
78779;DHT22;68121;52.404;5.318;2024-01-30T03:34:29;7.40;74.60
78779;DHT22;68121;52.404;5.318;2024-01-30T03:36:55;7.40;74.60
78779;DHT22;68121;52.404;5.318;2024-01-30T03:39:21;7.40;74.70
78779;DHT22;68121;52.404;5.318;2024-01-30T03:41:47;7.40;74.70
78779;DHT22;68121;52.404;5.318;2024-01-30T03:44:13;7.40;74.70
78779;DHT22;68121;52.404;5.318;2024-01-30T03:46:39;7.40;74.70
78779;DHT22;68121;52.404;5.318;2024-01-30T03:49:06;7.40;74.70
78779;DHT22;68121;52.404;5.318;2024-01-30T03:51:32;7.40;74.70
78779;DHT22;68121;52.404;5.318;2024-01-30T03:53:58;7.40;74.70
78779;DHT22;68121;52.404;5.318;2024-01-30T03:56:24;7.50;74.70
78779;DHT22;68121;52.404;5.318;2024-01-30T03:58:51;7.40;74.70
78779;DHT22;68121;52.404;5.318;2024-01-30T04:01:17;7.50;74.70
78779;DHT22;68121;52.404;5.318;2024-01-30T04:03:43;7.50;74.60
78779;DHT22;68121;52.404;5.318;2024-01-30T04:06:10;7.50;74.70
78779;DHT22;68121;52.404;5.318;2024-01-30T04:08:37;7.50;74.60
78779;DHT22;68121;52.404;5.318;2024-01-30T04:11:04;7.50;74.70
78779;DHT22;68121;52.404;5.318;2024-01-30T04:13:32;7.50;74.60
78779;DHT22;68121;52.404;5.318;2024-01-30T04:15:59;7.50;74.60
78779;DHT22;68121;52.404;5.318;2024-01-30T04:18:27;7.50;74.60
78779;DHT22;68121;52.404;5.318;2024-01-30T04:20:54;7.50;74.70
78779;DHT22;68121;52.404;5.318;2024-01-30T04:23:20;7.50;74.60
78779;DHT22;68121;52.404;5.318;2024-01-30T04:25:46;7.50;74.70
78779;DHT22;68121;52.404;5.318;2024-01-30T04:28:12;7.50;74.60
78779;DHT22;68121;52.404;5.318;2024-01-30T04:30:39;7.50;74.70
78779;DHT22;68121;52.404;5.318;2024-01-30T04:33:05;7.50;74.60
78779;DHT22;68121;52.404;5.318;2024-01-30T04:35:31;7.60;74.70
78779;DHT22;68121;52.404;5.318;2024-01-30T04:37:57;7.60;74.60
78779;DHT22;68121;52.404;5.318;2024-01-30T04:40:23;7.60;74.70
78779;DHT22;68121;52.404;5.318;2024-01-30T04:42:49;7.50;74.70
78779;DHT22;68121;52.404;5.318;2024-01-30T04:45:15;7.60;74.60
78779;DHT22;68121;52.404;5.318;2024-01-30T04:47:41;7.60;74.70
78779;DHT22;68121;52.404;5.318;2024-01-30T04:50:08;7.60;74.70
78779;DHT22;68121;52.404;5.318;2024-01-30T04:52:35;7.70;74.70
78779;DHT22;68121;52.404;5.318;2024-01-30T04:55:01;7.70;74.60
78779;DHT22;68121;52.404;5.318;2024-01-30T04:57:27;7.70;74.60
78779;DHT22;68121;52.404;5.318;2024-01-30T04:59:53;7.70;74.60
78779;DHT22;68121;52.404;5.318;2024-01-30T05:02:19;7.80;74.60
78779;DHT22;68121;52.404;5.318;2024-01-30T05:04:45;7.80;74.60
78779;DHT22;68121;52.404;5.318;2024-01-30T05:07:12;7.80;74.60
78779;DHT22;68121;52.404;5.318;2024-01-30T05:09:38;7.80;74.60
78779;DHT22;68121;52.404;5.318;2024-01-30T05:12:04;7.80;74.60
78779;DHT22;68121;52.404;5.318;2024-01-30T05:14:30;7.80;74.60
78779;DHT22;68121;52.404;5.318;2024-01-30T05:16:56;7.80;74.60
78779;DHT22;68121;52.404;5.318;2024-01-30T05:19:22;7.80;74.70
78779;DHT22;68121;52.404;5.318;2024-01-30T05:21:49;7.80;74.60
78779;DHT22;68121;52.404;5.318;2024-01-30T05:24:15;7.80;74.60
78779;DHT22;68121;52.404;5.318;2024-01-30T05:26:41;7.80;74.50
78779;DHT22;68121;52.404;5.318;2024-01-30T05:29:07;7.80;74.60
78779;DHT22;68121;52.404;5.318;2024-01-30T05:31:34;7.80;74.70
78779;DHT22;68121;52.404;5.318;2024-01-30T05:34:00;7.80;74.70
78779;DHT22;68121;52.404;5.318;2024-01-30T05:36:26;7.80;74.70
78779;DHT22;68121;52.404;5.318;2024-01-30T05:38:53;7.90;74.70
78779;DHT22;68121;52.404;5.318;2024-01-30T05:41:19;7.90;74.70
78779;DHT22;68121;52.404;5.318;2024-01-30T05:43:46;7.90;74.70
78779;DHT22;68121;52.404;5.318;2024-01-30T05:46:12;7.90;74.70
78779;DHT22;68121;52.404;5.318;2024-01-30T05:48:38;8.00;74.60
78779;DHT22;68121;52.404;5.318;2024-01-30T05:51:05;8.00;74.60
78779;DHT22;68121;52.404;5.318;2024-01-30T05:53:32;8.00;74.80
78779;DHT22;68121;52.404;5.318;2024-01-30T05:56:01;8.00;74.70
78779;DHT22;68121;52.404;5.318;2024-01-30T05:58:27;8.00;74.60
78779;DHT22;68121;52.404;5.318;2024-01-30T06:00:53;8.00;74.50
78779;DHT22;68121;52.404;5.318;2024-01-30T06:03:19;8.10;74.60
78779;DHT22;68121;52.404;5.318;2024-01-30T06:05:45;8.00;74.60
78779;DHT22;68121;52.404;5.318;2024-01-30T06:08:11;8.00;74.70
78779;DHT22;68121;52.404;5.318;2024-01-30T06:10:37;8.00;74.70
78779;DHT22;68121;52.404;5.318;2024-01-30T06:13:03;8.00;74.70
78779;DHT22;68121;52.404;5.318;2024-01-30T06:15:29;8.10;74.70
78779;DHT22;68121;52.404;5.318;2024-01-30T06:17:55;8.10;74.80
78779;DHT22;68121;52.404;5.318;2024-01-30T06:20:21;8.10;74.70
78779;DHT22;68121;52.404;5.318;2024-01-30T06:22:47;8.10;74.70
78779;DHT22;68121;52.404;5.318;2024-01-30T06:25:14;8.10;74.70
78779;DHT22;68121;52.404;5.318;2024-01-30T06:27:40;8.10;74.80
78779;DHT22;68121;52.404;5.318;2024-01-30T06:30:06;8.10;74.70
78779;DHT22;68121;52.404;5.318;2024-01-30T06:32:32;8.10;74.70
78779;DHT22;68121;52.404;5.318;2024-01-30T06:35:01;8.10;74.70
78779;DHT22;68121;52.404;5.318;2024-01-30T06:37:27;8.20;74.80
78779;DHT22;68121;52.404;5.318;2024-01-30T06:39:53;8.20;74.80
78779;DHT22;68121;52.404;5.318;2024-01-30T06:42:20;8.20;74.80
78779;DHT22;68121;52.404;5.318;2024-01-30T06:44:46;8.20;74.80
78779;DHT22;68121;52.404;5.318;2024-01-30T06:47:12;8.20;74.80
78779;DHT22;68121;52.404;5.318;2024-01-30T06:49:38;8.20;74.90
78779;DHT22;68121;52.404;5.318;2024-01-30T06:52:07;8.20;74.80
78779;DHT22;68121;52.404;5.318;2024-01-30T06:54:33;8.20;74.90
78779;DHT22;68121;52.404;5.318;2024-01-30T06:57:00;8.20;74.90
78779;DHT22;68121;52.404;5.318;2024-01-30T06:59:26;8.20;74.90
78779;DHT22;68121;52.404;5.318;2024-01-30T07:01:52;8.30;74.90
78779;DHT22;68121;52.404;5.318;2024-01-30T07:04:18;8.30;75.00
78779;DHT22;68121;52.404;5.318;2024-01-30T07:06:44;8.30;75.00
78779;DHT22;68121;52.404;5.318;2024-01-30T07:09:10;8.30;75.00
78779;DHT22;68121;52.404;5.318;2024-01-30T07:11:36;8.40;75.00
78779;DHT22;68121;52.404;5.318;2024-01-30T07:14:02;8.40;75.00
78779;DHT22;68121;52.404;5.318;2024-01-30T07:16:30;8.50;75.00
78779;DHT22;68121;52.404;5.318;2024-01-30T07:18:56;8.60;74.80
78779;DHT22;68121;52.404;5.318;2024-01-30T07:21:22;8.60;74.80
78779;DHT22;68121;52.404;5.318;2024-01-30T07:23:56;8.60;74.80
78779;DHT22;68121;52.404;5.318;2024-01-30T07:26:23;8.70;74.70
78779;DHT22;68121;52.404;5.318;2024-01-30T07:28:49;8.80;74.70
78779;DHT22;68121;52.404;5.318;2024-01-30T07:31:16;8.80;74.70
78779;DHT22;68121;52.404;5.318;2024-01-30T07:33:42;8.80;74.80
78779;DHT22;68121;52.404;5.318;2024-01-30T07:36:08;8.90;74.70
78779;DHT22;68121;52.404;5.318;2024-01-30T07:38:34;8.90;74.70
78779;DHT22;68121;52.404;5.318;2024-01-30T07:41:00;9.00;74.70
78779;DHT22;68121;52.404;5.318;2024-01-30T07:43:26;9.00;74.70
78779;DHT22;68121;52.404;5.318;2024-01-30T07:45:52;9.00;74.70
78779;DHT22;68121;52.404;5.318;2024-01-30T07:48:18;9.00;74.70
78779;DHT22;68121;52.404;5.318;2024-01-30T07:50:44;9.10;74.70
78779;DHT22;68121;52.404;5.318;2024-01-30T07:53:11;9.20;74.70
78779;DHT22;68121;52.404;5.318;2024-01-30T07:55:37;9.20;74.70
78779;DHT22;68121;52.404;5.318;2024-01-30T07:58:03;9.20;74.70
78779;DHT22;68121;52.404;5.318;2024-01-30T08:00:30;9.20;74.60
78779;DHT22;68121;52.404;5.318;2024-01-30T08:02:57;9.30;74.70
78779;DHT22;68121;52.404;5.318;2024-01-30T08:05:23;9.30;74.70
78779;DHT22;68121;52.404;5.318;2024-01-30T08:07:49;9.40;74.60
78779;DHT22;68121;52.404;5.318;2024-01-30T08:10:16;9.40;74.60
78779;DHT22;68121;52.404;5.318;2024-01-30T08:12:44;9.40;74.60
78779;DHT22;68121;52.404;5.318;2024-01-30T08:15:11;9.40;74.60
78779;DHT22;68121;52.404;5.318;2024-01-30T08:17:41;9.50;74.60
78779;DHT22;68121;52.404;5.318;2024-01-30T08:20:07;9.60;74.60
78779;DHT22;68121;52.404;5.318;2024-01-30T08:22:40;9.70;74.60
78779;DHT22;68121;52.404;5.318;2024-01-30T08:25:07;9.70;74.50
78779;DHT22;68121;52.404;5.318;2024-01-30T08:27:33;9.70;74.50
78779;DHT22;68121;52.404;5.318;2024-01-30T08:30:02;9.80;74.50
78779;DHT22;68121;52.404;5.318;2024-01-30T08:32:31;9.80;74.50
78779;DHT22;68121;52.404;5.318;2024-01-30T08:34:58;9.90;74.50
78779;DHT22;68121;52.404;5.318;2024-01-30T08:37:24;10.00;74.50
78779;DHT22;68121;52.404;5.318;2024-01-30T08:39:50;10.00;74.50
78779;DHT22;68121;52.404;5.318;2024-01-30T08:42:16;10.10;74.40
78779;DHT22;68121;52.404;5.318;2024-01-30T08:44:48;10.20;74.40
78779;DHT22;68121;52.404;5.318;2024-01-30T08:47:15;10.30;74.30
78779;DHT22;68121;52.404;5.318;2024-01-30T08:49:43;10.30;74.30
78779;DHT22;68121;52.404;5.318;2024-01-30T08:52:13;10.40;74.30
78779;DHT22;68121;52.404;5.318;2024-01-30T08:54:39;10.50;74.30
78779;DHT22;68121;52.404;5.318;2024-01-30T08:57:05;10.50;74.20
78779;DHT22;68121;52.404;5.318;2024-01-30T08:59:31;10.60;74.10
78779;DHT22;68121;52.404;5.318;2024-01-30T09:01:57;10.70;74.00
78779;DHT22;68121;52.404;5.318;2024-01-30T09:04:25;10.70;74.00
78779;DHT22;68121;52.404;5.318;2024-01-30T09:06:51;10.80;74.00
78779;DHT22;68121;52.404;5.318;2024-01-30T09:09:17;10.90;74.00
78779;DHT22;68121;52.404;5.318;2024-01-30T09:11:43;10.90;73.90
78779;DHT22;68121;52.404;5.318;2024-01-30T09:14:10;10.90;73.80
78779;DHT22;68121;52.404;5.318;2024-01-30T09:16:36;11.00;73.80
78779;DHT22;68121;52.404;5.318;2024-01-30T09:19:02;11.00;73.80
78779;DHT22;68121;52.404;5.318;2024-01-30T09:21:28;11.00;73.80
78779;DHT22;68121;52.404;5.318;2024-01-30T09:24:02;11.00;73.80
78779;DHT22;68121;52.404;5.318;2024-01-30T09:26:29;11.00;73.80
78779;DHT22;68121;52.404;5.318;2024-01-30T09:28:55;11.00;73.80
78779;DHT22;68121;52.404;5.318;2024-01-30T09:31:21;11.00;73.80
78779;DHT22;68121;52.404;5.318;2024-01-30T09:33:47;11.00;73.70
78779;DHT22;68121;52.404;5.318;2024-01-30T09:36:15;11.00;73.80
78779;DHT22;68121;52.404;5.318;2024-01-30T09:38:44;11.00;73.70
78779;DHT22;68121;52.404;5.318;2024-01-30T09:41:10;11.00;73.70
78779;DHT22;68121;52.404;5.318;2024-01-30T09:43:38;11.00;73.70
78779;DHT22;68121;52.404;5.318;2024-01-30T09:46:05;11.00;73.70
78779;DHT22;68121;52.404;5.318;2024-01-30T09:48:32;11.00;73.70
78779;DHT22;68121;52.404;5.318;2024-01-30T09:50:59;11.00;73.80
78779;DHT22;68121;52.404;5.318;2024-01-30T09:53:25;11.00;73.70
78779;DHT22;68121;52.404;5.318;2024-01-30T09:55:52;10.90;73.70
78779;DHT22;68121;52.404;5.318;2024-01-30T09:58:18;11.00;73.70
78779;DHT22;68121;52.404;5.318;2024-01-30T10:00:44;11.00;73.70
78779;DHT22;68121;52.404;5.318;2024-01-30T10:03:10;11.00;73.70
78779;DHT22;68121;52.404;5.318;2024-01-30T10:05:36;11.00;73.70
78779;DHT22;68121;52.404;5.318;2024-01-30T10:08:06;11.00;73.70
78779;DHT22;68121;52.404;5.318;2024-01-30T10:10:35;11.00;73.70
78779;DHT22;68121;52.404;5.318;2024-01-30T10:13:02;11.00;73.60
78779;DHT22;68121;52.404;5.318;2024-01-30T10:15:28;11.00;73.60
78779;DHT22;68121;52.404;5.318;2024-01-30T10:17:55;11.00;73.60
78779;DHT22;68121;52.404;5.318;2024-01-30T10:20:21;11.10;73.50
78779;DHT22;68121;52.404;5.318;2024-01-30T10:22:49;11.00;73.50
78779;DHT22;68121;52.404;5.318;2024-01-30T10:25:15;11.10;73.50
78779;DHT22;68121;52.404;5.318;2024-01-30T10:27:42;11.10;73.40
78779;DHT22;68121;52.404;5.318;2024-01-30T10:30:08;11.10;73.40
78779;DHT22;68121;52.404;5.318;2024-01-30T10:32:35;11.10;73.30
78779;DHT22;68121;52.404;5.318;2024-01-30T10:35:01;11.10;73.30
78779;DHT22;68121;52.404;5.318;2024-01-30T10:37:30;11.10;73.10
78779;DHT22;68121;52.404;5.318;2024-01-30T10:39:59;11.10;73.00
78779;DHT22;68121;52.404;5.318;2024-01-30T10:42:31;11.10;72.90
78779;DHT22;68121;52.404;5.318;2024-01-30T10:45:15;11.10;72.80
78779;DHT22;68121;52.404;5.318;2024-01-30T10:47:48;11.10;72.70
78779;DHT22;68121;52.404;5.318;2024-01-30T10:50:14;11.10;72.70
78779;DHT22;68121;52.404;5.318;2024-01-30T10:52:41;11.10;72.70
78779;DHT22;68121;52.404;5.318;2024-01-30T10:55:10;11.20;72.50
78779;DHT22;68121;52.404;5.318;2024-01-30T10:57:37;11.30;72.30
78779;DHT22;68121;52.404;5.318;2024-01-30T11:00:08;11.20;72.20
78779;DHT22;68121;52.404;5.318;2024-01-30T11:02:43;11.20;72.10
78779;DHT22;68121;52.404;5.318;2024-01-30T11:05:10;11.20;72.10
78779;DHT22;68121;52.404;5.318;2024-01-30T11:07:39;11.30;71.90
78779;DHT22;68121;52.404;5.318;2024-01-30T11:10:07;11.30;71.70
78779;DHT22;68121;52.404;5.318;2024-01-30T11:12:39;11.20;71.60
78779;DHT22;68121;52.404;5.318;2024-01-30T11:15:12;11.20;71.70
78779;DHT22;68121;52.404;5.318;2024-01-30T11:22:49;11.20;71.30
78779;DHT22;68121;52.404;5.318;2024-01-30T11:25:17;11.10;71.20
78779;DHT22;68121;52.404;5.318;2024-01-30T11:27:46;11.10;71.20
78779;DHT22;68121;52.404;5.318;2024-01-30T11:30:29;10.90;71.30
78779;DHT22;68121;52.404;5.318;2024-01-30T11:35:25;10.70;71.50
78779;DHT22;68121;52.404;5.318;2024-01-30T11:37:51;10.60;71.60
78779;DHT22;68121;52.404;5.318;2024-01-30T11:40:19;10.50;71.70
78779;DHT22;68121;52.404;5.318;2024-01-30T11:42:45;10.40;71.70
78779;DHT22;68121;52.404;5.318;2024-01-30T11:45:12;10.30;71.90
78779;DHT22;68121;52.404;5.318;2024-01-30T11:47:39;10.20;72.00
78779;DHT22;68121;52.404;5.318;2024-01-30T11:50:05;10.10;72.10
78779;DHT22;68121;52.404;5.318;2024-01-30T11:52:33;10.10;72.10
78779;DHT22;68121;52.404;5.318;2024-01-30T11:55:00;10.00;72.20
78779;DHT22;68121;52.404;5.318;2024-01-30T11:57:27;10.00;72.20
78779;DHT22;68121;52.404;5.318;2024-01-30T11:59:53;10.00;72.10
78779;DHT22;68121;52.404;5.318;2024-01-30T12:02:19;10.00;72.10
78779;DHT22;68121;52.404;5.318;2024-01-30T12:04:45;10.00;72.20
78779;DHT22;68121;52.404;5.318;2024-01-30T12:07:11;10.00;72.20
78779;DHT22;68121;52.404;5.318;2024-01-30T12:09:42;9.90;72.20
78779;DHT22;68121;52.404;5.318;2024-01-30T12:12:08;9.80;72.20
78779;DHT22;68121;52.404;5.318;2024-01-30T12:14:39;9.80;72.30
78779;DHT22;68121;52.404;5.318;2024-01-30T12:17:05;9.70;72.30
78779;DHT22;68121;52.404;5.318;2024-01-30T12:19:33;9.70;72.30
78779;DHT22;68121;52.404;5.318;2024-01-30T12:21:59;9.60;72.40
78779;DHT22;68121;52.404;5.318;2024-01-30T12:24:26;9.60;72.50
78779;DHT22;68121;52.404;5.318;2024-01-30T12:26:57;9.50;72.60
78779;DHT22;68121;52.404;5.318;2024-01-30T12:29:23;9.50;72.60
78779;DHT22;68121;52.404;5.318;2024-01-30T12:31:53;9.60;72.50
78779;DHT22;68121;52.404;5.318;2024-01-30T12:34:19;9.60;72.50
78779;DHT22;68121;52.404;5.318;2024-01-30T12:36:49;9.60;72.50
78779;DHT22;68121;52.404;5.318;2024-01-30T12:39:15;9.60;72.40
78779;DHT22;68121;52.404;5.318;2024-01-30T12:41:42;9.70;72.40
78779;DHT22;68121;52.404;5.318;2024-01-30T12:44:08;9.70;72.40
78779;DHT22;68121;52.404;5.318;2024-01-30T12:46:34;9.60;72.40
78779;DHT22;68121;52.404;5.318;2024-01-30T12:49:00;9.60;72.50
78779;DHT22;68121;52.404;5.318;2024-01-30T12:51:27;9.50;72.60
78779;DHT22;68121;52.404;5.318;2024-01-30T12:53:53;9.40;72.70
78779;DHT22;68121;52.404;5.318;2024-01-30T12:56:19;9.40;72.80
78779;DHT22;68121;52.404;5.318;2024-01-30T12:58:45;9.20;73.00
78779;DHT22;68121;52.404;5.318;2024-01-30T13:01:11;9.20;73.20
78779;DHT22;68121;52.404;5.318;2024-01-30T13:03:37;9.20;73.30
78779;DHT22;68121;52.404;5.318;2024-01-30T13:06:03;9.10;73.30
78779;DHT22;68121;52.404;5.318;2024-01-30T13:08:29;9.00;73.40
78779;DHT22;68121;52.404;5.318;2024-01-30T13:10:55;9.00;73.50
78779;DHT22;68121;52.404;5.318;2024-01-30T13:13:21;9.00;73.50
78779;DHT22;68121;52.404;5.318;2024-01-30T13:15:48;9.00;73.70
78779;DHT22;68121;52.404;5.318;2024-01-30T13:18:14;9.00;73.80
78779;DHT22;68121;52.404;5.318;2024-01-30T13:20:40;9.00;73.80
78779;DHT22;68121;52.404;5.318;2024-01-30T13:23:06;9.00;73.80
78779;DHT22;68121;52.404;5.318;2024-01-30T13:25:32;9.00;73.80
78779;DHT22;68121;52.404;5.318;2024-01-30T13:27:58;9.00;73.80
78779;DHT22;68121;52.404;5.318;2024-01-30T13:30:24;8.90;73.90
78779;DHT22;68121;52.404;5.318;2024-01-30T13:32:50;8.90;74.00
78779;DHT22;68121;52.404;5.318;2024-01-30T13:35:16;8.90;74.10
78779;DHT22;68121;52.404;5.318;2024-01-30T13:37:42;8.90;74.20
78779;DHT22;68121;52.404;5.318;2024-01-30T13:40:09;8.90;74.20
78779;DHT22;68121;52.404;5.318;2024-01-30T13:42:35;8.80;74.30
78779;DHT22;68121;52.404;5.318;2024-01-30T13:45:01;8.80;74.40
78779;DHT22;68121;52.404;5.318;2024-01-30T13:47:27;8.80;74.40
78779;DHT22;68121;52.404;5.318;2024-01-30T13:49:53;8.80;74.60
78779;DHT22;68121;52.404;5.318;2024-01-30T13:52:19;8.80;74.60
78779;DHT22;68121;52.404;5.318;2024-01-30T13:54:45;8.70;74.70
78779;DHT22;68121;52.404;5.318;2024-01-30T13:57:11;8.70;74.70
78779;DHT22;68121;52.404;5.318;2024-01-30T13:59:38;8.60;74.80
78779;DHT22;68121;52.404;5.318;2024-01-30T14:02:04;8.60;74.90
78779;DHT22;68121;52.404;5.318;2024-01-30T14:04:31;8.60;75.00
78779;DHT22;68121;52.404;5.318;2024-01-30T14:06:57;8.60;75.00
78779;DHT22;68121;52.404;5.318;2024-01-30T14:09:23;8.60;75.20
78779;DHT22;68121;52.404;5.318;2024-01-30T14:11:49;8.60;75.20
78779;DHT22;68121;52.404;5.318;2024-01-30T14:14:15;8.60;75.20
78779;DHT22;68121;52.404;5.318;2024-01-30T14:16:41;8.60;75.30
78779;DHT22;68121;52.404;5.318;2024-01-30T14:19:07;8.60;75.30
78779;DHT22;68121;52.404;5.318;2024-01-30T14:21:33;8.60;75.40
78779;DHT22;68121;52.404;5.318;2024-01-30T14:24:00;8.60;75.40
78779;DHT22;68121;52.404;5.318;2024-01-30T14:26:26;8.60;75.50
78779;DHT22;68121;52.404;5.318;2024-01-30T14:28:52;8.60;75.50
78779;DHT22;68121;52.404;5.318;2024-01-30T14:31:18;8.60;75.60
78779;DHT22;68121;52.404;5.318;2024-01-30T14:33:45;8.60;75.60
78779;DHT22;68121;52.404;5.318;2024-01-30T14:36:11;8.60;75.60
78779;DHT22;68121;52.404;5.318;2024-01-30T14:38:37;8.60;75.70
78779;DHT22;68121;52.404;5.318;2024-01-30T14:41:04;8.60;75.70
78779;DHT22;68121;52.404;5.318;2024-01-30T14:43:30;8.60;75.70
78779;DHT22;68121;52.404;5.318;2024-01-30T14:45:56;8.60;75.80
78779;DHT22;68121;52.404;5.318;2024-01-30T14:48:23;8.60;75.90
78779;DHT22;68121;52.404;5.318;2024-01-30T14:50:49;8.60;75.80
78779;DHT22;68121;52.404;5.318;2024-01-30T14:53:16;8.60;75.90
78779;DHT22;68121;52.404;5.318;2024-01-30T14:55:42;8.60;76.00
78779;DHT22;68121;52.404;5.318;2024-01-30T14:58:08;8.60;76.00
78779;DHT22;68121;52.404;5.318;2024-01-30T15:00:34;8.60;76.10
78779;DHT22;68121;52.404;5.318;2024-01-30T15:03:04;8.60;76.10
78779;DHT22;68121;52.404;5.318;2024-01-30T15:05:30;8.60;76.20
78779;DHT22;68121;52.404;5.318;2024-01-30T15:07:59;8.60;76.20
78779;DHT22;68121;52.404;5.318;2024-01-30T15:10:25;8.60;76.20
78779;DHT22;68121;52.404;5.318;2024-01-30T15:12:51;8.60;76.20
78779;DHT22;68121;52.404;5.318;2024-01-30T15:15:17;8.60;76.40
78779;DHT22;68121;52.404;5.318;2024-01-30T15:17:43;8.60;76.40
78779;DHT22;68121;52.404;5.318;2024-01-30T15:20:09;8.70;76.40
78779;DHT22;68121;52.404;5.318;2024-01-30T15:22:35;8.60;76.40
78779;DHT22;68121;52.404;5.318;2024-01-30T15:25:01;8.60;76.40
78779;DHT22;68121;52.404;5.318;2024-01-30T15:27:29;8.60;76.50
78779;DHT22;68121;52.404;5.318;2024-01-30T15:29:55;8.60;76.50
78779;DHT22;68121;52.404;5.318;2024-01-30T15:32:21;8.60;76.50
78779;DHT22;68121;52.404;5.318;2024-01-30T15:34:47;8.60;76.60
78779;DHT22;68121;52.404;5.318;2024-01-30T15:37:13;8.60;76.60
78779;DHT22;68121;52.404;5.318;2024-01-30T15:39:39;8.60;76.60
78779;DHT22;68121;52.404;5.318;2024-01-30T15:42:05;8.60;76.70
78779;DHT22;68121;52.404;5.318;2024-01-30T15:44:34;8.60;76.70
78779;DHT22;68121;52.404;5.318;2024-01-30T15:47:00;8.60;76.60